Airfield :
LOGIN :

Register | Disclaimer

   EN    FR    IT 

 










Legend :    VFR   Marginal VFR   IFR   Intensive IFR   Very Intensive IFR
Visi :
Ceiling :
>= 8 km
>= 3000ft
5 to 8 km
1000 to 3000 ft
1500m to 5 km
500 to 1000 ft
800 to 1500m
200 to 500 ft
< 800m
< 200 ft
Symbols :   Thunderstorms  Fog  Heavy snow  Heavy precipitations  Wind > 20 kt
SIGMETs :     Misc.  Thunderstorms  Icing  Turbulence  Mountain Waves  Volcanic Ashes







- Airport Elevation : 0 ft


ETEB - Ansbach Army Heliport

CURRENT METAR :
  • 190256Z AUTO 17008KT 9000 BR OVC006 00/M01 A3004 RMK AO2 SLP209 T10051006 55005 $

EXPIRED METARs :
  • 190156Z AUTO 15008KT 9999 OVC006 00/M01 A3004 RMK AO2 SLP206 T10051006 $
  • 190111Z AUTO 15009KT 9999 OVC006 00/M01 A3004 RMK AO2 SLP206 $
  • 190056Z AUTO 13008KT 9999 OVC007 00/M01 A3004 RMK AO2 SLP206 T10051006 $

TAF AMD TAF ETEB
Valid from the 19 at 02:00 until the 20 at 04:00 UTC


190200Z 1902/2004 12009KT 9999 BKN007 QNH3000INS
BECMG 1911/1912 16009KT 9999 BKN015 QNH2996INS
TEMPO 1913/1915 BKN010
BECMG 1917/1918 16009KT 8000 -SHRA BKN008 620409 QNH2993INS
BECMG 2000/2001 18012KT 6000 -SHRA BKN005 620409 QNH2992INS TX04/1914Z TNM01/1903Z
No reported NOTAMs for that airfield.



MET'MAP, your aeronautical weather chart ! - Copyright ORBIFLY December 2007 - Disclaimer

ORBIFLY MET'MAP TEAM :

Programming & Development : Alexandra Zaïnal
Concept & Development : Baudouin d'Aumeries
Co-Development & Prog : Marc-Olivier Méhu
Technical & hardware support : Manuel Goepfert

Contact : metmap@orbifly.com




SOURCES & CREDITS :

   NOAA